sensor_id;sensor_type;location;lat;lon;timestamp;P1;durP1;ratioP1;P2;durP2;ratioP2
22184;SDS011;11258;52.516;13.318;2023-01-01T00:01:07;30.63;;;17.48;;
22184;SDS011;11258;52.516;13.318;2023-01-01T00:03:34;27.15;;;17.80;;
22184;SDS011;11258;52.516;13.318;2023-01-01T00:06:10;24.38;;;16.02;;
22184;SDS011;11258;52.516;13.318;2023-01-01T00:08:37;20.25;;;13.35;;
22184;SDS011;11258;52.516;13.318;2023-01-01T00:11:04;23.00;;;13.85;;
22184;SDS011;11258;52.516;13.318;2023-01-01T00:13:31;21.23;;;13.32;;
22184;SDS011;11258;52.516;13.318;2023-01-01T00:16:04;17.48;;;12.50;;
22184;SDS011;11258;52.516;13.318;2023-01-01T00:18:31;17.20;;;11.07;;
22184;SDS011;11258;52.516;13.318;2023-01-01T00:23:33;11.13;;;7.25;;
22184;SDS011;11258;52.516;13.318;2023-01-01T00:25:59;17.58;;;9.63;;
22184;SDS011;11258;52.516;13.318;2023-01-01T00:28:25;12.45;;;6.88;;
22184;SDS011;11258;52.516;13.318;2023-01-01T00:30:51;30.13;;;14.95;;
22184;SDS011;11258;52.516;13.318;2023-01-01T00:33:17;28.45;;;17.85;;
22184;SDS011;11258;52.516;13.318;2023-01-01T00:35:43;24.15;;;15.63;;
22184;SDS011;11258;52.516;13.318;2023-01-01T00:38:08;19.67;;;13.10;;
22184;SDS011;11258;52.516;13.318;2023-01-01T00:40:34;26.00;;;14.95;;
22184;SDS011;11258;52.516;13.318;2023-01-01T00:43:00;21.83;;;11.63;;
22184;SDS011;11258;52.516;13.318;2023-01-01T00:45:25;15.57;;;9.82;;
22184;SDS011;11258;52.516;13.318;2023-01-01T00:47:51;12.85;;;10.00;;
22184;SDS011;11258;52.516;13.318;2023-01-01T00:50:18;10.77;;;7.25;;
22184;SDS011;11258;52.516;13.318;2023-01-01T00:52:44;9.68;;;6.40;;
22184;SDS011;11258;52.516;13.318;2023-01-01T00:55:10;15.45;;;8.73;;
22184;SDS011;11258;52.516;13.318;2023-01-01T00:57:36;17.35;;;7.38;;
22184;SDS011;11258;52.516;13.318;2023-01-01T01:00:03;12.50;;;5.22;;
22184;SDS011;11258;52.516;13.318;2023-01-01T01:02:29;10.30;;;4.20;;
22184;SDS011;11258;52.516;13.318;2023-01-01T01:04:55;8.00;;;3.53;;
22184;SDS011;11258;52.516;13.318;2023-01-01T01:07:20;14.23;;;3.50;;
22184;SDS011;11258;52.516;13.318;2023-01-01T01:09:46;7.00;;;3.00;;
22184;SDS011;11258;52.516;13.318;2023-01-01T01:12:11;5.90;;;3.10;;
22184;SDS011;11258;52.516;13.318;2023-01-01T01:14:37;7.53;;;3.20;;
22184;SDS011;11258;52.516;13.318;2023-01-01T01:17:03;7.43;;;3.28;;
22184;SDS011;11258;52.516;13.318;2023-01-01T01:19:28;4.10;;;2.53;;
22184;SDS011;11258;52.516;13.318;2023-01-01T01:21:54;7.32;;;3.22;;
22184;SDS011;11258;52.516;13.318;2023-01-01T01:24:19;7.75;;;3.85;;
22184;SDS011;11258;52.516;13.318;2023-01-01T01:26:45;10.18;;;3.55;;
22184;SDS011;11258;52.516;13.318;2023-01-01T01:29:10;5.78;;;3.78;;
22184;SDS011;11258;52.516;13.318;2023-01-01T01:31:36;9.40;;;3.72;;
22184;SDS011;11258;52.516;13.318;2023-01-01T01:34:02;7.18;;;3.75;;
22184;SDS011;11258;52.516;13.318;2023-01-01T01:36:27;6.05;;;4.32;;
22184;SDS011;11258;52.516;13.318;2023-01-01T01:38:53;8.65;;;3.88;;
22184;SDS011;11258;52.516;13.318;2023-01-01T01:41:20;6.32;;;3.42;;
22184;SDS011;11258;52.516;13.318;2023-01-01T01:48:52;12.50;;;3.90;;
22184;SDS011;11258;52.516;13.318;2023-01-01T01:51:22;6.25;;;4.18;;
22184;SDS011;11258;52.516;13.318;2023-01-01T01:53:54;7.95;;;4.53;;
22184;SDS011;11258;52.516;13.318;2023-01-01T01:56:31;6.95;;;4.03;;
22184;SDS011;11258;52.516;13.318;2023-01-01T01:59:03;7.25;;;3.63;;
22184;SDS011;11258;52.516;13.318;2023-01-01T02:01:30;8.27;;;3.35;;
22184;SDS011;11258;52.516;13.318;2023-01-01T02:03:57;10.43;;;4.32;;
22184;SDS011;11258;52.516;13.318;2023-01-01T02:06:24;9.70;;;4.18;;
22184;SDS011;11258;52.516;13.318;2023-01-01T02:08:51;8.35;;;3.90;;
22184;SDS011;11258;52.516;13.318;2023-01-01T02:11:18;8.73;;;3.90;;
22184;SDS011;11258;52.516;13.318;2023-01-01T02:13:43;9.02;;;3.53;;
22184;SDS011;11258;52.516;13.318;2023-01-01T02:30:12;7.72;;;4.03;;
22184;SDS011;11258;52.516;13.318;2023-01-01T02:32:41;14.07;;;4.40;;
22184;SDS011;11258;52.516;13.318;2023-01-01T02:35:27;8.38;;;4.30;;
22184;SDS011;11258;52.516;13.318;2023-01-01T02:38:10;7.68;;;4.20;;
22184;SDS011;11258;52.516;13.318;2023-01-01T02:40:49;7.63;;;3.47;;
22184;SDS011;11258;52.516;13.318;2023-01-01T02:43:20;8.32;;;3.78;;
22184;SDS011;11258;52.516;13.318;2023-01-01T02:45:46;9.63;;;3.60;;
22184;SDS011;11258;52.516;13.318;2023-01-01T02:51:02;15.00;;;3.75;;
22184;SDS011;11258;52.516;13.318;2023-01-01T02:53:34;8.07;;;3.65;;
22184;SDS011;11258;52.516;13.318;2023-01-01T02:56:09;8.85;;;4.15;;
22184;SDS011;11258;52.516;13.318;2023-01-01T03:05:07;7.82;;;4.03;;
22184;SDS011;11258;52.516;13.318;2023-01-01T03:10:18;7.72;;;4.03;;
22184;SDS011;11258;52.516;13.318;2023-01-01T03:12:58;9.50;;;4.28;;
22184;SDS011;11258;52.516;13.318;2023-01-01T03:15:30;7.25;;;4.43;;
22184;SDS011;11258;52.516;13.318;2023-01-01T03:21:10;6.18;;;3.78;;
22184;SDS011;11258;52.516;13.318;2023-01-01T03:23:41;8.52;;;4.15;;
22184;SDS011;11258;52.516;13.318;2023-01-01T03:26:11;11.82;;;4.32;;
22184;SDS011;11258;52.516;13.318;2023-01-01T03:31:34;9.32;;;4.05;;
22184;SDS011;11258;52.516;13.318;2023-01-01T03:34:05;8.00;;;4.07;;
22184;SDS011;11258;52.516;13.318;2023-01-01T03:36:34;6.45;;;3.67;;
22184;SDS011;11258;52.516;13.318;2023-01-01T03:39:07;9.50;;;4.10;;
22184;SDS011;11258;52.516;13.318;2023-01-01T03:42:28;10.15;;;3.95;;
22184;SDS011;11258;52.516;13.318;2023-01-01T03:44:55;7.30;;;4.18;;
22184;SDS011;11258;52.516;13.318;2023-01-01T03:47:22;8.45;;;4.13;;
22184;SDS011;11258;52.516;13.318;2023-01-01T03:49:48;8.00;;;3.40;;
22184;SDS011;11258;52.516;13.318;2023-01-01T04:00:06;9.45;;;3.63;;
22184;SDS011;11258;52.516;13.318;2023-01-01T04:02:39;12.60;;;4.25;;
22184;SDS011;11258;52.516;13.318;2023-01-01T04:05:28;11.90;;;4.10;;
22184;SDS011;11258;52.516;13.318;2023-01-01T04:07:54;7.63;;;3.53;;
22184;SDS011;11258;52.516;13.318;2023-01-01T04:10:21;8.90;;;3.70;;
22184;SDS011;11258;52.516;13.318;2023-01-01T04:12:49;6.88;;;3.92;;
22184;SDS011;11258;52.516;13.318;2023-01-01T04:15:18;9.18;;;3.70;;
22184;SDS011;11258;52.516;13.318;2023-01-01T04:17:46;8.27;;;3.97;;
22184;SDS011;11258;52.516;13.318;2023-01-01T04:20:12;7.68;;;3.60;;
22184;SDS011;11258;52.516;13.318;2023-01-01T04:22:38;10.27;;;3.55;;
22184;SDS011;11258;52.516;13.318;2023-01-01T04:25:04;9.80;;;3.80;;
22184;SDS011;11258;52.516;13.318;2023-01-01T04:27:30;14.60;;;4.20;;
22184;SDS011;11258;52.516;13.318;2023-01-01T04:29:56;8.70;;;3.78;;
22184;SDS011;11258;52.516;13.318;2023-01-01T04:32:22;11.00;;;4.03;;
22184;SDS011;11258;52.516;13.318;2023-01-01T04:34:48;7.55;;;3.40;;
22184;SDS011;11258;52.516;13.318;2023-01-01T04:37:13;8.23;;;4.07;;
22184;SDS011;11258;52.516;13.318;2023-01-01T04:39:39;7.78;;;3.70;;
22184;SDS011;11258;52.516;13.318;2023-01-01T04:42:05;7.40;;;3.63;;
22184;SDS011;11258;52.516;13.318;2023-01-01T04:44:31;7.57;;;4.00;;
22184;SDS011;11258;52.516;13.318;2023-01-01T04:46:56;9.63;;;4.30;;
22184;SDS011;11258;52.516;13.318;2023-01-01T04:49:22;6.90;;;3.63;;
22184;SDS011;11258;52.516;13.318;2023-01-01T04:51:48;9.55;;;4.05;;
22184;SDS011;11258;52.516;13.318;2023-01-01T04:54:13;10.50;;;4.60;;
22184;SDS011;11258;52.516;13.318;2023-01-01T04:56:39;8.55;;;4.68;;
22184;SDS011;11258;52.516;13.318;2023-01-01T04:59:05;9.70;;;4.40;;
22184;SDS011;11258;52.516;13.318;2023-01-01T05:01:30;7.38;;;4.53;;
22184;SDS011;11258;52.516;13.318;2023-01-01T05:03:56;9.23;;;4.07;;
22184;SDS011;11258;52.516;13.318;2023-01-01T05:06:23;7.43;;;3.85;;
22184;SDS011;11258;52.516;13.318;2023-01-01T05:08:50;8.15;;;3.72;;
22184;SDS011;11258;52.516;13.318;2023-01-01T05:11:22;7.78;;;4.10;;
22184;SDS011;11258;52.516;13.318;2023-01-01T05:13:50;10.50;;;4.18;;
22184;SDS011;11258;52.516;13.318;2023-01-01T05:16:19;10.32;;;4.22;;
22184;SDS011;11258;52.516;13.318;2023-01-01T05:18:49;7.70;;;4.78;;
22184;SDS011;11258;52.516;13.318;2023-01-01T05:21:16;9.95;;;4.55;;
22184;SDS011;11258;52.516;13.318;2023-01-01T05:23:53;10.25;;;3.65;;
22184;SDS011;11258;52.516;13.318;2023-01-01T05:26:20;11.63;;;4.45;;
22184;SDS011;11258;52.516;13.318;2023-01-01T05:28:48;9.70;;;3.90;;
22184;SDS011;11258;52.516;13.318;2023-01-01T05:31:18;7.60;;;4.07;;
22184;SDS011;11258;52.516;13.318;2023-01-01T05:33:46;9.80;;;4.65;;
22184;SDS011;11258;52.516;13.318;2023-01-01T05:36:16;8.27;;;3.80;;
22184;SDS011;11258;52.516;13.318;2023-01-01T05:38:44;9.45;;;3.78;;
22184;SDS011;11258;52.516;13.318;2023-01-01T05:41:11;7.55;;;4.00;;
22184;SDS011;11258;52.516;13.318;2023-01-01T05:43:37;9.98;;;3.67;;
22184;SDS011;11258;52.516;13.318;2023-01-01T05:46:05;5.40;;;3.53;;
22184;SDS011;11258;52.516;13.318;2023-01-01T05:48:42;9.82;;;3.53;;
22184;SDS011;11258;52.516;13.318;2023-01-01T05:51:18;8.82;;;3.60;;
22184;SDS011;11258;52.516;13.318;2023-01-01T05:53:45;11.50;;;3.63;;
22184;SDS011;11258;52.516;13.318;2023-01-01T05:56:11;7.93;;;3.00;;
22184;SDS011;11258;52.516;13.318;2023-01-01T05:58:38;10.38;;;3.50;;
22184;SDS011;11258;52.516;13.318;2023-01-01T06:01:05;8.02;;;3.38;;
22184;SDS011;11258;52.516;13.318;2023-01-01T06:03:31;5.25;;;3.08;;
22184;SDS011;11258;52.516;13.318;2023-01-01T06:05:57;7.82;;;3.42;;
22184;SDS011;11258;52.516;13.318;2023-01-01T06:08:26;4.82;;;2.65;;
22184;SDS011;11258;52.516;13.318;2023-01-01T06:10:56;4.68;;;3.28;;
22184;SDS011;11258;52.516;13.318;2023-01-01T06:13:22;6.68;;;3.50;;
22184;SDS011;11258;52.516;13.318;2023-01-01T06:15:54;9.38;;;3.25;;
22184;SDS011;11258;52.516;13.318;2023-01-01T06:18:22;11.55;;;3.47;;
22184;SDS011;11258;52.516;13.318;2023-01-01T06:20:48;6.22;;;3.22;;
22184;SDS011;11258;52.516;13.318;2023-01-01T06:23:14;4.63;;;2.50;;
22184;SDS011;11258;52.516;13.318;2023-01-01T06:25:39;7.65;;;3.10;;
22184;SDS011;11258;52.516;13.318;2023-01-01T06:28:05;6.15;;;2.97;;
22184;SDS011;11258;52.516;13.318;2023-01-01T06:30:31;8.02;;;3.40;;
22184;SDS011;11258;52.516;13.318;2023-01-01T06:32:58;6.00;;;2.65;;
22184;SDS011;11258;52.516;13.318;2023-01-01T06:35:27;5.38;;;3.22;;
22184;SDS011;11258;52.516;13.318;2023-01-01T06:37:53;6.63;;;3.25;;
22184;SDS011;11258;52.516;13.318;2023-01-01T06:40:19;5.10;;;2.75;;
22184;SDS011;11258;52.516;13.318;2023-01-01T06:42:44;8.90;;;3.20;;
22184;SDS011;11258;52.516;13.318;2023-01-01T06:45:10;7.13;;;3.67;;
22184;SDS011;11258;52.516;13.318;2023-01-01T06:47:37;10.52;;;2.72;;
22184;SDS011;11258;52.516;13.318;2023-01-01T06:50:03;6.15;;;2.95;;
22184;SDS011;11258;52.516;13.318;2023-01-01T06:52:29;8.05;;;2.90;;
22184;SDS011;11258;52.516;13.318;2023-01-01T06:54:55;7.50;;;3.03;;
22184;SDS011;11258;52.516;13.318;2023-01-01T06:57:21;5.82;;;2.58;;
22184;SDS011;11258;52.516;13.318;2023-01-01T06:59:47;6.68;;;3.08;;
22184;SDS011;11258;52.516;13.318;2023-01-01T07:02:13;5.38;;;3.30;;
22184;SDS011;11258;52.516;13.318;2023-01-01T07:04:38;6.40;;;3.20;;
22184;SDS011;11258;52.516;13.318;2023-01-01T07:07:04;8.25;;;3.55;;
22184;SDS011;11258;52.516;13.318;2023-01-01T07:09:29;5.25;;;3.08;;
22184;SDS011;11258;52.516;13.318;2023-01-01T07:11:55;5.15;;;2.85;;
22184;SDS011;11258;52.516;13.318;2023-01-01T07:14:21;10.15;;;3.30;;
22184;SDS011;11258;52.516;13.318;2023-01-01T07:16:46;7.15;;;3.00;;
22184;SDS011;11258;52.516;13.318;2023-01-01T07:19:12;5.65;;;2.75;;
22184;SDS011;11258;52.516;13.318;2023-01-01T07:21:42;7.47;;;3.45;;
22184;SDS011;11258;52.516;13.318;2023-01-01T07:24:10;7.22;;;3.78;;
22184;SDS011;11258;52.516;13.318;2023-01-01T07:26:37;5.95;;;3.22;;
22184;SDS011;11258;52.516;13.318;2023-01-01T07:29:05;9.00;;;3.60;;
22184;SDS011;11258;52.516;13.318;2023-01-01T07:31:32;7.35;;;3.28;;
22184;SDS011;11258;52.516;13.318;2023-01-01T07:33:59;7.88;;;3.20;;
22184;SDS011;11258;52.516;13.318;2023-01-01T07:36:24;5.75;;;3.38;;
22184;SDS011;11258;52.516;13.318;2023-01-01T07:38:50;8.55;;;3.80;;
22184;SDS011;11258;52.516;13.318;2023-01-01T07:41:16;5.40;;;2.83;;
22184;SDS011;11258;52.516;13.318;2023-01-01T07:43:41;7.18;;;3.22;;
22184;SDS011;11258;52.516;13.318;2023-01-01T07:46:09;7.60;;;3.30;;
22184;SDS011;11258;52.516;13.318;2023-01-01T07:48:36;6.53;;;3.22;;
22184;SDS011;11258;52.516;13.318;2023-01-01T07:51:02;5.72;;;3.30;;
22184;SDS011;11258;52.516;13.318;2023-01-01T07:53:27;6.47;;;3.55;;
22184;SDS011;11258;52.516;13.318;2023-01-01T07:55:53;9.27;;;3.28;;
22184;SDS011;11258;52.516;13.318;2023-01-01T07:58:19;8.05;;;3.88;;
22184;SDS011;11258;52.516;13.318;2023-01-01T08:00:45;4.95;;;3.25;;
22184;SDS011;11258;52.516;13.318;2023-01-01T08:03:12;8.50;;;4.15;;
22184;SDS011;11258;52.516;13.318;2023-01-01T08:05:38;8.35;;;3.55;;
22184;SDS011;11258;52.516;13.318;2023-01-01T08:08:04;5.38;;;3.63;;
22184;SDS011;11258;52.516;13.318;2023-01-01T08:10:29;10.90;;;4.05;;
22184;SDS011;11258;52.516;13.318;2023-01-01T08:13:02;6.60;;;3.50;;
22184;SDS011;11258;52.516;13.318;2023-01-01T08:15:29;9.43;;;3.97;;
22184;SDS011;11258;52.516;13.318;2023-01-01T08:18:00;6.10;;;4.03;;
22184;SDS011;11258;52.516;13.318;2023-01-01T08:20:28;8.20;;;4.07;;
22184;SDS011;11258;52.516;13.318;2023-01-01T08:22:58;6.93;;;3.67;;
22184;SDS011;11258;52.516;13.318;2023-01-01T08:25:24;6.13;;;3.78;;
22184;SDS011;11258;52.516;13.318;2023-01-01T08:27:49;14.20;;;4.10;;
22184;SDS011;11258;52.516;13.318;2023-01-01T08:30:15;7.88;;;3.65;;
22184;SDS011;11258;52.516;13.318;2023-01-01T08:32:41;7.68;;;3.72;;
22184;SDS011;11258;52.516;13.318;2023-01-01T08:35:07;6.45;;;3.95;;
22184;SDS011;11258;52.516;13.318;2023-01-01T08:37:33;6.47;;;4.20;;
22184;SDS011;11258;52.516;13.318;2023-01-01T08:39:59;7.05;;;4.07;;
22184;SDS011;11258;52.516;13.318;2023-01-01T08:42:24;6.82;;;3.50;;
22184;SDS011;11258;52.516;13.318;2023-01-01T08:44:50;9.13;;;3.97;;
22184;SDS011;11258;52.516;13.318;2023-01-01T08:47:16;7.43;;;4.07;;
22184;SDS011;11258;52.516;13.318;2023-01-01T08:49:42;9.05;;;4.30;;
22184;SDS011;11258;52.516;13.318;2023-01-01T08:52:08;8.10;;;4.05;;
22184;SDS011;11258;52.516;13.318;2023-01-01T08:54:33;9.73;;;3.55;;
22184;SDS011;11258;52.516;13.318;2023-01-01T08:56:59;4.80;;;3.33;;
22184;SDS011;11258;52.516;13.318;2023-01-01T08:59:25;7.53;;;4.35;;
22184;SDS011;11258;52.516;13.318;2023-01-01T09:01:50;8.27;;;3.70;;
22184;SDS011;11258;52.516;13.318;2023-01-01T09:04:16;7.93;;;4.03;;
22184;SDS011;11258;52.516;13.318;2023-01-01T09:06:41;8.20;;;4.30;;
22184;SDS011;11258;52.516;13.318;2023-01-01T09:09:07;7.50;;;4.18;;
22184;SDS011;11258;52.516;13.318;2023-01-01T09:11:33;7.63;;;3.67;;
22184;SDS011;11258;52.516;13.318;2023-01-01T09:13:58;7.45;;;4.20;;
22184;SDS011;11258;52.516;13.318;2023-01-01T09:16:24;7.55;;;3.90;;
22184;SDS011;11258;52.516;13.318;2023-01-01T09:18:50;8.43;;;3.60;;
22184;SDS011;11258;52.516;13.318;2023-01-01T09:21:15;5.90;;;3.50;;
22184;SDS011;11258;52.516;13.318;2023-01-01T09:23:41;10.20;;;4.05;;
22184;SDS011;11258;52.516;13.318;2023-01-01T09:26:07;7.95;;;4.28;;
22184;SDS011;11258;52.516;13.318;2023-01-01T09:28:34;6.45;;;3.60;;
22184;SDS011;11258;52.516;13.318;2023-01-01T09:31:01;6.85;;;3.40;;
22184;SDS011;11258;52.516;13.318;2023-01-01T09:33:29;7.35;;;3.45;;
22184;SDS011;11258;52.516;13.318;2023-01-01T09:35:58;9.23;;;3.92;;
22184;SDS011;11258;52.516;13.318;2023-01-01T09:38:55;5.72;;;3.72;;
22184;SDS011;11258;52.516;13.318;2023-01-01T09:41:32;12.60;;;5.97;;
22184;SDS011;11258;52.516;13.318;2023-01-01T09:47:01;10.25;;;4.10;;
22184;SDS011;11258;52.516;13.318;2023-01-01T09:49:31;8.65;;;3.83;;
22184;SDS011;11258;52.516;13.318;2023-01-01T09:52:05;6.95;;;3.30;;
22184;SDS011;11258;52.516;13.318;2023-01-01T09:54:32;8.60;;;3.95;;
22184;SDS011;11258;52.516;13.318;2023-01-01T09:57:06;8.23;;;3.20;;
22184;SDS011;11258;52.516;13.318;2023-01-01T09:59:35;6.35;;;3.00;;
22184;SDS011;11258;52.516;13.318;2023-01-01T10:07:45;9.85;;;3.90;;
22184;SDS011;11258;52.516;13.318;2023-01-01T10:10:40;8.68;;;3.60;;
22184;SDS011;11258;52.516;13.318;2023-01-01T10:16:03;7.28;;;3.53;;
22184;SDS011;11258;52.516;13.318;2023-01-01T10:18:36;7.65;;;3.75;;
22184;SDS011;11258;52.516;13.318;2023-01-01T10:21:06;5.10;;;3.50;;
22184;SDS011;11258;52.516;13.318;2023-01-01T10:23:49;6.57;;;3.75;;
22184;SDS011;11258;52.516;13.318;2023-01-01T10:26:20;5.72;;;3.40;;
22184;SDS011;11258;52.516;13.318;2023-01-01T10:31:33;6.85;;;3.03;;
22184;SDS011;11258;52.516;13.318;2023-01-01T10:34:02;4.50;;;3.20;;
22184;SDS011;11258;52.516;13.318;2023-01-01T10:36:53;6.78;;;3.38;;
22184;SDS011;11258;52.516;13.318;2023-01-01T10:39:20;4.90;;;2.75;;
22184;SDS011;11258;52.516;13.318;2023-01-01T10:41:47;5.60;;;3.10;;
22184;SDS011;11258;52.516;13.318;2023-01-01T10:44:14;9.07;;;2.78;;
22184;SDS011;11258;52.516;13.318;2023-01-01T10:46:43;6.35;;;3.10;;
22184;SDS011;11258;52.516;13.318;2023-01-01T10:49:13;8.18;;;3.08;;
22184;SDS011;11258;52.516;13.318;2023-01-01T10:51:44;6.47;;;2.97;;
22184;SDS011;11258;52.516;13.318;2023-01-01T10:59:51;5.57;;;2.45;;
22184;SDS011;11258;52.516;13.318;2023-01-01T11:05:09;4.85;;;2.90;;
22184;SDS011;11258;52.516;13.318;2023-01-01T11:07:45;7.13;;;3.15;;
22184;SDS011;11258;52.516;13.318;2023-01-01T11:10:19;8.50;;;3.30;;
22184;SDS011;11258;52.516;13.318;2023-01-01T11:12:46;4.03;;;2.55;;
22184;SDS011;11258;52.516;13.318;2023-01-01T11:15:35;6.53;;;2.50;;
22184;SDS011;11258;52.516;13.318;2023-01-01T11:18:09;8.02;;;3.47;;
22184;SDS011;11258;52.516;13.318;2023-01-01T11:20:38;9.13;;;3.47;;
22184;SDS011;11258;52.516;13.318;2023-01-01T11:28:27;6.10;;;2.53;;
22184;SDS011;11258;52.516;13.318;2023-01-01T11:33:23;6.43;;;2.58;;
22184;SDS011;11258;52.516;13.318;2023-01-01T11:35:54;6.32;;;2.72;;
22184;SDS011;11258;52.516;13.318;2023-01-01T11:38:21;10.07;;;3.67;;
22184;SDS011;11258;52.516;13.318;2023-01-01T11:40:50;6.22;;;3.00;;
22184;SDS011;11258;52.516;13.318;2023-01-01T11:43:20;6.32;;;3.35;;
22184;SDS011;11258;52.516;13.318;2023-01-01T11:45:48;9.38;;;4.22;;
22184;SDS011;11258;52.516;13.318;2023-01-01T11:48:19;3.30;;;2.53;;
22184;SDS011;11258;52.516;13.318;2023-01-01T11:50:49;6.75;;;3.95;;
22184;SDS011;11258;52.516;13.318;2023-01-01T11:56:33;5.97;;;3.15;;
22184;SDS011;11258;52.516;13.318;2023-01-01T12:04:17;7.30;;;3.20;;
22184;SDS011;11258;52.516;13.318;2023-01-01T12:06:58;6.43;;;3.50;;
22184;SDS011;11258;52.516;13.318;2023-01-01T12:12:55;6.75;;;3.67;;
22184;SDS011;11258;52.516;13.318;2023-01-01T12:21:02;7.20;;;2.80;;
22184;SDS011;11258;52.516;13.318;2023-01-01T12:23:41;5.28;;;2.60;;
22184;SDS011;11258;52.516;13.318;2023-01-01T12:28:44;7.75;;;4.25;;
22184;SDS011;11258;52.516;13.318;2023-01-01T12:34:27;15.15;;;7.85;;
22184;SDS011;11258;52.516;13.318;2023-01-01T12:45:16;6.57;;;3.17;;
22184;SDS011;11258;52.516;13.318;2023-01-01T12:53:52;10.98;;;5.30;;
22184;SDS011;11258;52.516;13.318;2023-01-01T12:56:41;5.43;;;2.53;;
22184;SDS011;11258;52.516;13.318;2023-01-01T12:59:17;7.38;;;2.92;;
22184;SDS011;11258;52.516;13.318;2023-01-01T13:01:46;5.13;;;3.70;;
22184;SDS011;11258;52.516;13.318;2023-01-01T13:04:16;6.72;;;2.67;;
22184;SDS011;11258;52.516;13.318;2023-01-01T13:09:17;9.65;;;2.83;;
22184;SDS011;11258;52.516;13.318;2023-01-01T13:11:45;7.80;;;2.30;;
22184;SDS011;11258;52.516;13.318;2023-01-01T13:14:14;5.63;;;2.17;;
22184;SDS011;11258;52.516;13.318;2023-01-01T13:16:40;5.90;;;2.13;;
22184;SDS011;11258;52.516;13.318;2023-01-01T13:19:34;5.57;;;2.63;;
22184;SDS011;11258;52.516;13.318;2023-01-01T13:44:10;5.68;;;2.45;;
22184;SDS011;11258;52.516;13.318;2023-01-01T13:49:27;6.43;;;2.63;;
22184;SDS011;11258;52.516;13.318;2023-01-01T13:55:18;5.38;;;2.13;;
22184;SDS011;11258;52.516;13.318;2023-01-01T14:03:34;6.28;;;3.08;;
22184;SDS011;11258;52.516;13.318;2023-01-01T14:06:10;7.18;;;2.55;;
22184;SDS011;11258;52.516;13.318;2023-01-01T14:08:38;5.65;;;2.50;;
22184;SDS011;11258;52.516;13.318;2023-01-01T14:11:20;8.27;;;2.47;;
22184;SDS011;11258;52.516;13.318;2023-01-01T14:13:48;4.28;;;2.03;;
22184;SDS011;11258;52.516;13.318;2023-01-01T14:16:14;5.15;;;2.50;;
22184;SDS011;11258;52.516;13.318;2023-01-01T14:21:11;7.65;;;2.40;;
22184;SDS011;11258;52.516;13.318;2023-01-01T14:24:00;5.95;;;2.67;;
22184;SDS011;11258;52.516;13.318;2023-01-01T14:26:28;4.97;;;2.70;;
22184;SDS011;11258;52.516;13.318;2023-01-01T14:28:56;6.68;;;2.78;;
22184;SDS011;11258;52.516;13.318;2023-01-01T14:31:25;4.88;;;2.72;;
22184;SDS011;11258;52.516;13.318;2023-01-01T14:33:53;5.13;;;2.80;;
22184;SDS011;11258;52.516;13.318;2023-01-01T14:36:20;5.68;;;2.35;;
22184;SDS011;11258;52.516;13.318;2023-01-01T14:38:48;6.68;;;2.85;;
22184;SDS011;11258;52.516;13.318;2023-01-01T14:43:56;7.30;;;2.97;;
22184;SDS011;11258;52.516;13.318;2023-01-01T14:46:44;7.15;;;3.67;;
22184;SDS011;11258;52.516;13.318;2023-01-01T14:49:54;6.53;;;2.45;;
22184;SDS011;11258;52.516;13.318;2023-01-01T14:52:05;7.35;;;2.97;;
22184;SDS011;11258;52.516;13.318;2023-01-01T14:54:43;8.05;;;3.05;;
22184;SDS011;11258;52.516;13.318;2023-01-01T14:57:10;7.93;;;2.90;;
22184;SDS011;11258;52.516;13.318;2023-01-01T14:59:48;4.53;;;2.75;;
22184;SDS011;11258;52.516;13.318;2023-01-01T15:02:25;9.30;;;3.35;;
22184;SDS011;11258;52.516;13.318;2023-01-01T15:04:57;9.63;;;4.63;;
22184;SDS011;11258;52.516;13.318;2023-01-01T15:07:27;8.40;;;3.55;;
22184;SDS011;11258;52.516;13.318;2023-01-01T15:09:55;8.23;;;3.28;;
22184;SDS011;11258;52.516;13.318;2023-01-01T15:12:24;7.32;;;3.10;;
22184;SDS011;11258;52.516;13.318;2023-01-01T15:14:51;5.97;;;2.97;;
22184;SDS011;11258;52.516;13.318;2023-01-01T15:17:19;4.82;;;2.97;;
22184;SDS011;11258;52.516;13.318;2023-01-01T15:22:33;9.85;;;2.60;;
22184;SDS011;11258;52.516;13.318;2023-01-01T15:25:02;6.72;;;2.80;;
22184;SDS011;11258;52.516;13.318;2023-01-01T15:27:29;6.85;;;2.90;;
22184;SDS011;11258;52.516;13.318;2023-01-01T15:30:00;5.97;;;2.88;;
22184;SDS011;11258;52.516;13.318;2023-01-01T15:32:35;6.82;;;3.15;;
22184;SDS011;11258;52.516;13.318;2023-01-01T15:35:03;5.38;;;3.13;;
22184;SDS011;11258;52.516;13.318;2023-01-01T15:37:35;10.23;;;3.22;;
22184;SDS011;11258;52.516;13.318;2023-01-01T15:43:24;6.72;;;3.08;;
22184;SDS011;11258;52.516;13.318;2023-01-01T15:45:28;5.60;;;2.88;;
22184;SDS011;11258;52.516;13.318;2023-01-01T15:53:06;5.88;;;3.08;;
22184;SDS011;11258;52.516;13.318;2023-01-01T15:55:44;8.52;;;3.85;;
22184;SDS011;11258;52.516;13.318;2023-01-01T15:58:17;5.88;;;3.25;;
22184;SDS011;11258;52.516;13.318;2023-01-01T16:01:01;9.10;;;3.58;;
22184;SDS011;11258;52.516;13.318;2023-01-01T16:03:29;10.00;;;5.20;;
22184;SDS011;11258;52.516;13.318;2023-01-01T16:05:55;9.80;;;5.00;;
22184;SDS011;11258;52.516;13.318;2023-01-01T16:08:22;12.70;;;4.93;;
22184;SDS011;11258;52.516;13.318;2023-01-01T16:10:48;8.85;;;4.38;;
22184;SDS011;11258;52.516;13.318;2023-01-01T16:13:14;8.37;;;4.43;;
22184;SDS011;11258;52.516;13.318;2023-01-01T16:15:56;7.78;;;3.58;;
22184;SDS011;11258;52.516;13.318;2023-01-01T16:18:26;8.60;;;4.23;;
22184;SDS011;11258;52.516;13.318;2023-01-01T16:20:54;8.17;;;3.77;;
22184;SDS011;11258;52.516;13.318;2023-01-01T16:23:20;7.10;;;4.03;;
22184;SDS011;11258;52.516;13.318;2023-01-01T16:25:45;12.10;;;4.00;;
22184;SDS011;11258;52.516;13.318;2023-01-01T16:28:12;8.30;;;4.57;;
22184;SDS011;11258;52.516;13.318;2023-01-01T16:30:38;7.13;;;4.30;;
22184;SDS011;11258;52.516;13.318;2023-01-01T16:33:05;8.77;;;4.07;;
22184;SDS011;11258;52.516;13.318;2023-01-01T16:35:41;9.07;;;4.60;;
22184;SDS011;11258;52.516;13.318;2023-01-01T16:38:06;8.57;;;3.63;;
22184;SDS011;11258;52.516;13.318;2023-01-01T16:40:32;12.18;;;5.00;;
22184;SDS011;11258;52.516;13.318;2023-01-01T16:42:58;11.97;;;5.20;;
22184;SDS011;11258;52.516;13.318;2023-01-01T16:45:24;10.77;;;4.33;;
22184;SDS011;11258;52.516;13.318;2023-01-01T16:47:49;10.73;;;4.30;;
22184;SDS011;11258;52.516;13.318;2023-01-01T16:50:15;11.13;;;5.27;;
22184;SDS011;11258;52.516;13.318;2023-01-01T16:52:41;10.83;;;5.60;;
22184;SDS011;11258;52.516;13.318;2023-01-01T16:55:06;15.60;;;5.83;;
22184;SDS011;11258;52.516;13.318;2023-01-01T16:57:32;13.63;;;6.47;;
22184;SDS011;11258;52.516;13.318;2023-01-01T16:59:58;14.90;;;6.87;;
22184;SDS011;11258;52.516;13.318;2023-01-01T17:02:23;18.03;;;10.20;;
22184;SDS011;11258;52.516;13.318;2023-01-01T17:04:49;20.07;;;10.00;;
22184;SDS011;11258;52.516;13.318;2023-01-01T17:07:15;17.00;;;9.67;;
22184;SDS011;11258;52.516;13.318;2023-01-01T17:09:40;16.13;;;7.33;;
22184;SDS011;11258;52.516;13.318;2023-01-01T17:12:07;14.60;;;6.73;;
22184;SDS011;11258;52.516;13.318;2023-01-01T17:14:32;9.38;;;4.82;;
22184;SDS011;11258;52.516;13.318;2023-01-01T17:16:58;10.87;;;4.90;;
22184;SDS011;11258;52.516;13.318;2023-01-01T17:19:24;9.87;;;4.10;;
22184;SDS011;11258;52.516;13.318;2023-01-01T17:21:49;7.40;;;4.10;;
22184;SDS011;11258;52.516;13.318;2023-01-01T17:24:15;8.10;;;4.47;;
22184;SDS011;11258;52.516;13.318;2023-01-01T17:26:43;12.93;;;5.30;;
22184;SDS011;11258;52.516;13.318;2023-01-01T17:29:08;10.07;;;5.10;;